SWA6299 KMCO-MKJS
Flight info
| Callsign | SWA6299 |
|---|---|
| Flight time | 1h 36m |
| Altitude | 37000 |
| Route | DDANY3 VALKA DCT EBAYY Q97 TOVAR Y297 URSUS UL780 TASNO UM221 NIBEO DCT ADSEL LENAR7 |
| Aircraft | B38M/M-SDE1FGHILORVWXY/HB1 |
Departure
| Time | 2026-04-23 10:43 |
|---|---|
| Airport | Orlando International Airport (KMCO) |
Arrival
| Time | 2026-04-23 12:20 |
|---|---|
| Airport | Sangster International Airport (MKJS) |
| Time | Latitude | Longitude | Altitude | Speed | Heading |
|---|---|---|---|---|---|
| 2026-04-23 10:10 | 28.43416 | -81.31579 | 88 ft | 0 kts | 119° |
| 2026-04-23 10:31 | 28.43418 | -81.31584 | 88 ft | 2 kts | 119° |
| 2026-04-23 10:31 | 28.43426 | -81.31599 | 88 ft | 2 kts | 119° |
| 2026-04-23 10:32 | 28.43433 | -81.31614 | 88 ft | 2 kts | 119° |
| 2026-04-23 10:32 | 28.43441 | -81.31629 | 88 ft | 1 kts | 119° |
| 2026-04-23 10:32 | 28.43446 | -81.31639 | 88 ft | 2 kts | 108° |
| 2026-04-23 10:32 | 28.43446 | -81.31656 | 88 ft | 2 kts | 75° |
| 2026-04-23 10:33 | 28.43439 | -81.31671 | 88 ft | 2 kts | 46° |
| 2026-04-23 10:33 | 28.43428 | -81.31680 | 88 ft | 1 kts | 19° |
| 2026-04-23 10:33 | 28.43422 | -81.31682 | 88 ft | 1 kts | 11° |
| 2026-04-23 10:33 | 28.43419 | -81.31683 | 88 ft | 0 kts | 13° |
| 2026-04-23 10:35 | 28.43429 | -81.31680 | 88 ft | 5 kts | 13° |
| 2026-04-23 10:35 | 28.43492 | -81.31664 | 88 ft | 10 kts | 12° |
| 2026-04-23 10:35 | 28.43559 | -81.31650 | 89 ft | 9 kts | 10° |
| 2026-04-23 10:36 | 28.43617 | -81.31637 | 90 ft | 8 kts | 11° |
| 2026-04-23 10:36 | 28.43678 | -81.31623 | 90 ft | 9 kts | 10° |
| 2026-04-23 10:36 | 28.43749 | -81.31632 | 91 ft | 10 kts | 335° |
| 2026-04-23 10:36 | 28.43812 | -81.31673 | 91 ft | 10 kts | 333° |
| 2026-04-23 10:37 | 28.43881 | -81.31683 | 91 ft | 9 kts | 16° |
| 2026-04-23 10:37 | 28.43920 | -81.31628 | 91 ft | 10 kts | 78° |
| 2026-04-23 10:37 | 28.43924 | -81.31533 | 91 ft | 13 kts | 90° |
| 2026-04-23 10:37 | 28.43925 | -81.31415 | 91 ft | 15 kts | 87° |
| 2026-04-23 10:38 | 28.43932 | -81.31286 | 91 ft | 17 kts | 87° |
| 2026-04-23 10:38 | 28.43935 | -81.31157 | 90 ft | 15 kts | 90° |
| 2026-04-23 10:38 | 28.43942 | -81.31023 | 88 ft | 15 kts | 88° |
| 2026-04-23 10:38 | 28.43942 | -81.30911 | 88 ft | 13 kts | 90° |
| 2026-04-23 10:39 | 28.43939 | -81.30799 | 88 ft | 14 kts | 94° |
| 2026-04-23 10:39 | 28.43931 | -81.30686 | 89 ft | 15 kts | 95° |
| 2026-04-23 10:39 | 28.43923 | -81.30563 | 90 ft | 15 kts | 95° |
| 2026-04-23 10:39 | 28.43915 | -81.30437 | 91 ft | 16 kts | 93° |
| 2026-04-23 10:40 | 28.43910 | -81.30304 | 91 ft | 16 kts | 93° |
| 2026-04-23 10:40 | 28.43905 | -81.30182 | 91 ft | 15 kts | 93° |
| 2026-04-23 10:40 | 28.43899 | -81.30065 | 91 ft | 14 kts | 94° |
| 2026-04-23 10:40 | 28.43880 | -81.29955 | 91 ft | 15 kts | 112° |
| 2026-04-23 10:41 | 28.43810 | -81.29856 | 91 ft | 16 kts | 144° |
| 2026-04-23 10:41 | 28.43699 | -81.29806 | 91 ft | 17 kts | 174° |
| 2026-04-23 10:41 | 28.43596 | -81.29801 | 91 ft | 13 kts | 165° |
| 2026-04-23 10:41 | 28.43554 | -81.29730 | 91 ft | 10 kts | 99° |
| 2026-04-23 10:42 | 28.43550 | -81.29655 | 91 ft | 9 kts | 90° |
| 2026-04-23 10:42 | 28.43528 | -81.29597 | 91 ft | 7 kts | 155° |
| 2026-04-23 10:42 | 28.43449 | -81.29587 | 91 ft | 31 kts | 180° |
| 2026-04-23 10:42 | 28.42952 | -81.29578 | 91 ft | 109 kts | 179° |
| 2026-04-23 10:43 | 28.41960 | -81.29573 | 100 ft | 171 kts | 179° |
| 2026-04-23 10:43 | 28.40758 | -81.29578 | 727 ft | 176 kts | 180° |
| 2026-04-23 10:43 | 28.39566 | -81.29584 | 1575 ft | 173 kts | 179° |
| 2026-04-23 10:43 | 28.38362 | -81.29604 | 2256 ft | 175 kts | 179° |
| 2026-04-23 10:44 | 28.37181 | -81.29658 | 2970 ft | 171 kts | 179° |
| 2026-04-23 10:44 | 28.35960 | -81.29733 | 3422 ft | 184 kts | 180° |
| 2026-04-23 10:44 | 28.34600 | -81.29791 | 3693 ft | 210 kts | 179° |
| 2026-04-23 10:44 | 28.33053 | -81.29700 | 4031 ft | 234 kts | 162° |
| 2026-04-23 10:45 | 28.31619 | -81.28742 | 4481 ft | 253 kts | 132° |
| 2026-04-23 10:45 | 28.30710 | -81.27034 | 5201 ft | 261 kts | 109° |
| 2026-04-23 10:45 | 28.30299 | -81.25011 | 5951 ft | 268 kts | 97° |
| 2026-04-23 10:45 | 28.30143 | -81.22900 | 6755 ft | 273 kts | 93° |
| 2026-04-23 10:46 | 28.30044 | -81.20766 | 7587 ft | 275 kts | 92° |
| 2026-04-23 10:46 | 28.29936 | -81.18590 | 8372 ft | 279 kts | 93° |
| 2026-04-23 10:46 | 28.29813 | -81.16394 | 9146 ft | 283 kts | 93° |
| 2026-04-23 10:46 | 28.29679 | -81.14148 | 9861 ft | 288 kts | 94° |
| 2026-04-23 10:47 | 28.29538 | -81.11870 | 10409 ft | 300 kts | 93° |
| 2026-04-23 10:47 | 28.29385 | -81.09397 | 10526 ft | 326 kts | 94° |
| 2026-04-23 10:47 | 28.29223 | -81.06770 | 10720 ft | 346 kts | 94° |
| 2026-04-23 10:47 | 28.29053 | -81.04022 | 11295 ft | 354 kts | 94° |
| 2026-04-23 10:48 | 28.28881 | -81.01183 | 11927 ft | 359 kts | 94° |
| 2026-04-23 10:48 | 28.28713 | -80.98357 | 12547 ft | 364 kts | 94° |
| 2026-04-23 10:48 | 28.28539 | -80.95499 | 13164 ft | 369 kts | 94° |
| 2026-04-23 10:48 | 28.28355 | -80.92557 | 13742 ft | 374 kts | 94° |
| 2026-04-23 10:49 | 28.28171 | -80.89620 | 14324 ft | 378 kts | 94° |
| 2026-04-23 10:49 | 28.27773 | -80.86643 | 14871 ft | 384 kts | 104° |
| 2026-04-23 10:49 | 28.26991 | -80.83771 | 15453 ft | 387 kts | 110° |
| 2026-04-23 10:49 | 28.26034 | -80.80906 | 15972 ft | 392 kts | 111° |
| 2026-04-23 10:50 | 28.25016 | -80.78019 | 16458 ft | 397 kts | 112° |
| 2026-04-23 10:50 | 28.23981 | -80.75121 | 16910 ft | 403 kts | 112° |
| 2026-04-23 10:50 | 28.22757 | -80.72227 | 17386 ft | 407 kts | 122° |
| 2026-04-23 10:50 | 28.21047 | -80.69698 | 17857 ft | 409 kts | 135° |
| 2026-04-23 10:51 | 28.18875 | -80.67622 | 18326 ft | 410 kts | 149° |
| 2026-04-23 10:51 | 28.16397 | -80.66087 | 18826 ft | 410 kts | 158° |
| 2026-04-23 10:51 | 28.13750 | -80.64890 | 19295 ft | 412 kts | 163° |
| 2026-04-23 10:51 | 28.11025 | -80.63856 | 19757 ft | 414 kts | 165° |
| 2026-04-23 10:52 | 28.08288 | -80.62878 | 20199 ft | 417 kts | 166° |
| 2026-04-23 10:52 | 28.05501 | -80.61896 | 20640 ft | 420 kts | 166° |
| 2026-04-23 10:52 | 28.02721 | -80.60923 | 21072 ft | 423 kts | 166° |
| 2026-04-23 10:52 | 27.99916 | -80.59946 | 21433 ft | 428 kts | 166° |
| 2026-04-23 10:53 | 27.97039 | -80.58946 | 21860 ft | 430 kts | 166° |
| 2026-04-23 10:53 | 27.94193 | -80.57961 | 22251 ft | 433 kts | 166° |
| 2026-04-23 10:53 | 27.91324 | -80.56969 | 22622 ft | 437 kts | 166° |
| 2026-04-23 10:53 | 27.88435 | -80.55924 | 23004 ft | 440 kts | 165° |
| 2026-04-23 10:54 | 27.85530 | -80.54842 | 23372 ft | 443 kts | 165° |
| 2026-04-23 10:54 | 27.82605 | -80.53752 | 23734 ft | 446 kts | 165° |
| 2026-04-23 10:54 | 27.79624 | -80.52643 | 24084 ft | 448 kts | 166° |
| 2026-04-23 10:54 | 27.76663 | -80.51543 | 24428 ft | 451 kts | 166° |
| 2026-04-23 10:55 | 27.73698 | -80.50444 | 24759 ft | 454 kts | 166° |
| 2026-04-23 10:55 | 27.70701 | -80.49316 | 25088 ft | 457 kts | 165° |
| 2026-04-23 10:55 | 27.67725 | -80.48136 | 25382 ft | 461 kts | 165° |
| 2026-04-23 10:55 | 27.64695 | -80.46923 | 25711 ft | 463 kts | 164° |
| 2026-04-23 10:56 | 27.61670 | -80.45715 | 26022 ft | 465 kts | 165° |
| 2026-04-23 10:56 | 27.58613 | -80.44495 | 26323 ft | 468 kts | 165° |
| 2026-04-23 10:56 | 27.55552 | -80.43277 | 26617 ft | 470 kts | 165° |
| 2026-04-23 10:56 | 27.52467 | -80.42051 | 26903 ft | 473 kts | 165° |
| 2026-04-23 10:57 | 27.49379 | -80.40825 | 27193 ft | 475 kts | 165° |
| 2026-04-23 10:57 | 27.46246 | -80.39583 | 27471 ft | 477 kts | 165° |
| 2026-04-23 10:57 | 27.43123 | -80.38346 | 27733 ft | 480 kts | 165° |
| 2026-04-23 10:57 | 27.39973 | -80.37099 | 28011 ft | 482 kts | 165° |
| 2026-04-23 10:58 | 27.36806 | -80.35847 | 28286 ft | 484 kts | 165° |
| 2026-04-23 10:58 | 27.33672 | -80.34609 | 28535 ft | 486 kts | 166° |
| 2026-04-23 10:58 | 27.30470 | -80.33344 | 28774 ft | 488 kts | 166° |
| 2026-04-23 10:58 | 27.27274 | -80.32082 | 28995 ft | 490 kts | 166° |
| 2026-04-23 10:59 | 27.24061 | -80.30814 | 29271 ft | 491 kts | 166° |
| 2026-04-23 10:59 | 27.20877 | -80.29559 | 29525 ft | 492 kts | 166° |
| 2026-04-23 10:59 | 27.17622 | -80.28275 | 29827 ft | 492 kts | 166° |
| 2026-04-23 10:59 | 27.14446 | -80.27025 | 30116 ft | 492 kts | 166° |
| 2026-04-23 11:00 | 27.11237 | -80.25762 | 30475 ft | 490 kts | 166° |
| 2026-04-23 11:00 | 27.08027 | -80.24500 | 30779 ft | 489 kts | 166° |
| 2026-04-23 11:00 | 27.04843 | -80.23249 | 31100 ft | 488 kts | 166° |
| 2026-04-23 11:00 | 27.01661 | -80.21999 | 31440 ft | 486 kts | 166° |
| 2026-04-23 11:01 | 26.98482 | -80.20751 | 31797 ft | 484 kts | 167° |
| 2026-04-23 11:01 | 26.95327 | -80.19514 | 32065 ft | 484 kts | 167° |
| 2026-04-23 11:01 | 26.92125 | -80.18260 | 32347 ft | 483 kts | 167° |
| 2026-04-23 11:01 | 26.88993 | -80.17034 | 32628 ft | 482 kts | 167° |
| 2026-04-23 11:02 | 26.85825 | -80.15794 | 32915 ft | 481 kts | 167° |
| 2026-04-23 11:02 | 26.82682 | -80.14565 | 33191 ft | 480 kts | 167° |
| 2026-04-23 11:02 | 26.79566 | -80.13348 | 33455 ft | 479 kts | 168° |
| 2026-04-23 11:02 | 26.76406 | -80.12113 | 33676 ft | 479 kts | 168° |
| 2026-04-23 11:03 | 26.73301 | -80.10902 | 33931 ft | 478 kts | 168° |
| 2026-04-23 11:03 | 26.70156 | -80.09675 | 34128 ft | 479 kts | 168° |
| 2026-04-23 11:03 | 26.67017 | -80.08451 | 34375 ft | 478 kts | 168° |
| 2026-04-23 11:03 | 26.63911 | -80.07241 | 34628 ft | 477 kts | 168° |
| 2026-04-23 11:04 | 26.60801 | -80.06029 | 34874 ft | 476 kts | 168° |
| 2026-04-23 11:04 | 26.57684 | -80.04816 | 35087 ft | 476 kts | 168° |
| 2026-04-23 11:04 | 26.54574 | -80.03606 | 35304 ft | 475 kts | 168° |
| 2026-04-23 11:04 | 26.51486 | -80.02414 | 35542 ft | 474 kts | 169° |
| 2026-04-23 11:05 | 26.48380 | -80.01218 | 35748 ft | 473 kts | 168° |
| 2026-04-23 11:05 | 26.45292 | -80.00028 | 35957 ft | 473 kts | 168° |
| 2026-04-23 11:05 | 26.42164 | -79.98819 | 36224 ft | 471 kts | 169° |
| 2026-04-23 11:05 | 26.39101 | -79.97636 | 36401 ft | 470 kts | 169° |
| 2026-04-23 11:06 | 26.32922 | -79.95249 | 36752 ft | 470 kts | 169° |
| 2026-04-23 11:06 | 26.29849 | -79.94062 | 36916 ft | 470 kts | 169° |
| 2026-04-23 11:06 | 26.26769 | -79.92873 | 37065 ft | 470 kts | 168° |
| 2026-04-23 11:07 | 26.23686 | -79.91682 | 37131 ft | 472 kts | 168° |
| 2026-04-23 11:07 | 26.17478 | -79.89288 | 37123 ft | 478 kts | 168° |
| 2026-04-23 11:08 | 26.11224 | -79.86874 | 37119 ft | 478 kts | 168° |
| 2026-04-23 11:08 | 26.04969 | -79.84461 | 37116 ft | 476 kts | 168° |
| 2026-04-23 11:09 | 25.98762 | -79.82069 | 37114 ft | 475 kts | 168° |
| 2026-04-23 11:09 | 25.92497 | -79.79660 | 37115 ft | 476 kts | 168° |
| 2026-04-23 11:10 | 25.86266 | -79.77274 | 37115 ft | 477 kts | 168° |
| 2026-04-23 11:10 | 25.80028 | -79.74887 | 37116 ft | 476 kts | 169° |
| 2026-04-23 11:11 | 25.73779 | -79.72495 | 37113 ft | 475 kts | 169° |
| 2026-04-23 11:11 | 25.67573 | -79.70122 | 37113 ft | 475 kts | 169° |
| 2026-04-23 11:12 | 25.61325 | -79.67735 | 37118 ft | 476 kts | 169° |
| 2026-04-23 11:12 | 25.55119 | -79.65367 | 37117 ft | 475 kts | 169° |
| 2026-04-23 11:13 | 25.48905 | -79.62998 | 37117 ft | 475 kts | 169° |
| 2026-04-23 11:13 | 25.42678 | -79.60626 | 37113 ft | 476 kts | 169° |
| 2026-04-23 11:14 | 25.36424 | -79.58244 | 37112 ft | 475 kts | 169° |
| 2026-04-23 11:14 | 25.30198 | -79.55875 | 37112 ft | 475 kts | 169° |
| 2026-04-23 11:15 | 25.23997 | -79.53520 | 37112 ft | 475 kts | 169° |
| 2026-04-23 11:15 | 25.17781 | -79.51160 | 37112 ft | 475 kts | 170° |
| 2026-04-23 11:16 | 25.11553 | -79.48798 | 37111 ft | 474 kts | 170° |
| 2026-04-23 11:16 | 25.05319 | -79.46436 | 37112 ft | 474 kts | 170° |
| 2026-04-23 11:17 | 24.99111 | -79.44087 | 37115 ft | 473 kts | 170° |
| 2026-04-23 11:17 | 24.92915 | -79.41745 | 37116 ft | 473 kts | 170° |
| 2026-04-23 11:18 | 24.86710 | -79.39403 | 37116 ft | 474 kts | 170° |
| 2026-04-23 11:18 | 24.80495 | -79.37059 | 37116 ft | 473 kts | 170° |
| 2026-04-23 11:19 | 24.74310 | -79.34727 | 37117 ft | 471 kts | 171° |
| 2026-04-23 11:19 | 24.68149 | -79.32407 | 37122 ft | 470 kts | 171° |
| 2026-04-23 11:20 | 24.61981 | -79.30088 | 37113 ft | 472 kts | 171° |
| 2026-04-23 11:20 | 24.55779 | -79.27759 | 37113 ft | 472 kts | 171° |
| 2026-04-23 11:21 | 24.49581 | -79.25433 | 37112 ft | 472 kts | 171° |
| 2026-04-23 11:21 | 24.43411 | -79.23119 | 37112 ft | 472 kts | 171° |
| 2026-04-23 11:22 | 24.37211 | -79.20798 | 37112 ft | 472 kts | 171° |
| 2026-04-23 11:22 | 24.31042 | -79.18491 | 37112 ft | 472 kts | 171° |
| 2026-04-23 11:23 | 24.24833 | -79.16171 | 37111 ft | 472 kts | 171° |
| 2026-04-23 11:23 | 24.18641 | -79.13860 | 37111 ft | 472 kts | 171° |
| 2026-04-23 11:24 | 24.12461 | -79.11556 | 37111 ft | 474 kts | 171° |
| 2026-04-23 11:24 | 24.06217 | -79.09488 | 37109 ft | 465 kts | 178° |
| 2026-04-23 11:25 | 23.99922 | -79.08279 | 37108 ft | 456 kts | 184° |
| 2026-04-23 11:25 | 23.93671 | -79.07745 | 37106 ft | 446 kts | 188° |
| 2026-04-23 11:26 | 23.87523 | -79.07564 | 37107 ft | 443 kts | 190° |
| 2026-04-23 11:26 | 23.81419 | -79.07547 | 37105 ft | 441 kts | 191° |
| 2026-04-23 11:27 | 23.75312 | -79.07610 | 37103 ft | 441 kts | 191° |
| 2026-04-23 11:27 | 23.69190 | -79.07710 | 37102 ft | 441 kts | 191° |
| 2026-04-23 11:28 | 23.63096 | -79.07827 | 37100 ft | 441 kts | 191° |
| 2026-04-23 11:28 | 23.56987 | -79.07953 | 37097 ft | 440 kts | 191° |
| 2026-04-23 11:29 | 23.50873 | -79.08084 | 37093 ft | 440 kts | 191° |
| 2026-04-23 11:29 | 23.44779 | -79.08217 | 37092 ft | 440 kts | 191° |
| 2026-04-23 11:30 | 23.38673 | -79.08351 | 37090 ft | 441 kts | 191° |
| 2026-04-23 11:30 | 23.32577 | -79.08485 | 37089 ft | 441 kts | 191° |
| 2026-04-23 11:31 | 23.26495 | -79.08621 | 37088 ft | 441 kts | 191° |
| 2026-04-23 11:31 | 23.20353 | -79.08757 | 37087 ft | 441 kts | 191° |
| 2026-04-23 11:32 | 23.14251 | -79.08892 | 37086 ft | 441 kts | 191° |
| 2026-04-23 11:32 | 23.08174 | -79.09026 | 37085 ft | 441 kts | 191° |
| 2026-04-23 11:33 | 23.02038 | -79.09162 | 37083 ft | 441 kts | 191° |
| 2026-04-23 11:33 | 22.95944 | -79.09297 | 37082 ft | 441 kts | 191° |
| 2026-04-23 11:34 | 22.89801 | -79.09433 | 37082 ft | 442 kts | 191° |
| 2026-04-23 11:34 | 22.83698 | -79.09568 | 37081 ft | 442 kts | 191° |
| 2026-04-23 11:35 | 22.77552 | -79.09703 | 37081 ft | 442 kts | 191° |
| 2026-04-23 11:35 | 22.71445 | -79.09837 | 37080 ft | 442 kts | 191° |
| 2026-04-23 11:36 | 22.65326 | -79.09972 | 37080 ft | 442 kts | 191° |
| 2026-04-23 11:36 | 22.59220 | -79.10105 | 37080 ft | 442 kts | 191° |
| 2026-04-23 11:37 | 22.53064 | -79.10238 | 37079 ft | 442 kts | 191° |
| 2026-04-23 11:37 | 22.46935 | -79.10371 | 37073 ft | 442 kts | 191° |
| 2026-04-23 11:38 | 22.40800 | -79.10504 | 37072 ft | 442 kts | 191° |
| 2026-04-23 11:38 | 22.34709 | -79.10636 | 37072 ft | 442 kts | 191° |
| 2026-04-23 11:39 | 22.28584 | -79.10769 | 37072 ft | 443 kts | 191° |
| 2026-04-23 11:39 | 22.22420 | -79.10903 | 37071 ft | 443 kts | 191° |
| 2026-04-23 11:40 | 22.16293 | -79.10919 | 37070 ft | 449 kts | 186° |
| 2026-04-23 11:40 | 22.10044 | -79.10261 | 37075 ft | 455 kts | 182° |
| 2026-04-23 11:41 | 22.03819 | -79.09059 | 37076 ft | 460 kts | 178° |
| 2026-04-23 11:41 | 21.97580 | -79.07699 | 37075 ft | 459 kts | 178° |
| 2026-04-23 11:42 | 21.91348 | -79.06326 | 37075 ft | 458 kts | 178° |
| 2026-04-23 11:42 | 21.85117 | -79.04952 | 37075 ft | 458 kts | 178° |
| 2026-04-23 11:43 | 21.78908 | -79.03582 | 37075 ft | 458 kts | 178° |
| 2026-04-23 11:43 | 21.72666 | -79.02204 | 37074 ft | 459 kts | 178° |
| 2026-04-23 11:44 | 21.66482 | -79.00839 | 37074 ft | 458 kts | 178° |
| 2026-04-23 11:44 | 21.60239 | -78.99461 | 37074 ft | 458 kts | 178° |
| 2026-04-23 11:45 | 21.54019 | -78.98089 | 37074 ft | 458 kts | 177° |
| 2026-04-23 11:45 | 21.47797 | -78.96718 | 37073 ft | 459 kts | 177° |
| 2026-04-23 11:46 | 21.41569 | -78.95347 | 37073 ft | 459 kts | 177° |
| 2026-04-23 11:46 | 21.35355 | -78.93980 | 37067 ft | 459 kts | 177° |
| 2026-04-23 11:47 | 21.29112 | -78.92608 | 37067 ft | 459 kts | 177° |
| 2026-04-23 11:47 | 21.22875 | -78.91238 | 37067 ft | 459 kts | 177° |
| 2026-04-23 11:48 | 21.16668 | -78.89879 | 37066 ft | 459 kts | 177° |
| 2026-04-23 11:48 | 21.10414 | -78.88514 | 37066 ft | 459 kts | 177° |
| 2026-04-23 11:49 | 21.04195 | -78.87156 | 37066 ft | 459 kts | 177° |
| 2026-04-23 11:49 | 20.97961 | -78.85795 | 37065 ft | 459 kts | 177° |
| 2026-04-23 11:50 | 20.91727 | -78.84433 | 37065 ft | 459 kts | 177° |
| 2026-04-23 11:50 | 20.85473 | -78.83068 | 37065 ft | 460 kts | 177° |
| 2026-04-23 11:51 | 20.79256 | -78.81712 | 37058 ft | 460 kts | 177° |
| 2026-04-23 11:51 | 20.72989 | -78.80345 | 37057 ft | 460 kts | 177° |
| 2026-04-23 11:52 | 20.66757 | -78.78988 | 37056 ft | 460 kts | 177° |
| 2026-04-23 11:52 | 20.60530 | -78.77632 | 37055 ft | 460 kts | 176° |
| 2026-04-23 11:53 | 20.54277 | -78.76271 | 37048 ft | 459 kts | 176° |
| 2026-04-23 11:53 | 20.48066 | -78.74921 | 37047 ft | 458 kts | 176° |
| 2026-04-23 11:54 | 20.41851 | -78.73573 | 37045 ft | 459 kts | 176° |
| 2026-04-23 11:54 | 20.35615 | -78.72220 | 37043 ft | 459 kts | 176° |
| 2026-04-23 11:55 | 20.29376 | -78.70868 | 37042 ft | 459 kts | 176° |
| 2026-04-23 11:55 | 20.23140 | -78.69517 | 37040 ft | 459 kts | 176° |
| 2026-04-23 11:56 | 20.16894 | -78.68165 | 37038 ft | 459 kts | 176° |
| 2026-04-23 11:56 | 20.10680 | -78.66821 | 37036 ft | 459 kts | 176° |
| 2026-04-23 11:57 | 20.04439 | -78.65473 | 37034 ft | 459 kts | 176° |
| 2026-04-23 11:57 | 19.98163 | -78.64127 | 37023 ft | 459 kts | 176° |
| 2026-04-23 11:57 | 19.95082 | -78.63503 | 36683 ft | 454 kts | 177° |
| 2026-04-23 11:58 | 19.91969 | -78.62878 | 35911 ft | 455 kts | 176° |
| 2026-04-23 11:58 | 19.88879 | -78.62260 | 35171 ft | 454 kts | 176° |
| 2026-04-23 11:58 | 19.85820 | -78.61646 | 34454 ft | 453 kts | 176° |
| 2026-04-23 11:58 | 19.82745 | -78.61028 | 33717 ft | 452 kts | 176° |
| 2026-04-23 11:59 | 19.79672 | -78.60410 | 32962 ft | 451 kts | 176° |
| 2026-04-23 11:59 | 19.76603 | -78.59792 | 32200 ft | 453 kts | 176° |
| 2026-04-23 11:59 | 19.73535 | -78.59177 | 31419 ft | 459 kts | 175° |
| 2026-04-23 11:59 | 19.70372 | -78.58541 | 30594 ft | 461 kts | 175° |
| 2026-04-23 12:00 | 19.67272 | -78.57916 | 29815 ft | 460 kts | 175° |
| 2026-04-23 12:00 | 19.64121 | -78.57281 | 29230 ft | 462 kts | 174° |
| 2026-04-23 12:00 | 19.60994 | -78.56651 | 28581 ft | 458 kts | 174° |
| 2026-04-23 12:00 | 19.57897 | -78.56025 | 27926 ft | 452 kts | 174° |
| 2026-04-23 12:01 | 19.54867 | -78.55413 | 27285 ft | 446 kts | 174° |
| 2026-04-23 12:01 | 19.51828 | -78.54801 | 26640 ft | 441 kts | 174° |
| 2026-04-23 12:01 | 19.48856 | -78.54202 | 26003 ft | 436 kts | 174° |
| 2026-04-23 12:01 | 19.45873 | -78.53604 | 25368 ft | 441 kts | 173° |
| 2026-04-23 12:02 | 19.42887 | -78.53005 | 24715 ft | 437 kts | 173° |
| 2026-04-23 12:02 | 19.39918 | -78.52408 | 24070 ft | 431 kts | 173° |
| 2026-04-23 12:02 | 19.37007 | -78.51823 | 23433 ft | 427 kts | 173° |
| 2026-04-23 12:02 | 19.34109 | -78.51241 | 22798 ft | 422 kts | 173° |
| 2026-04-23 12:03 | 19.31274 | -78.50671 | 22172 ft | 417 kts | 173° |
| 2026-04-23 12:03 | 19.28449 | -78.50105 | 21547 ft | 412 kts | 173° |
| 2026-04-23 12:03 | 19.25652 | -78.49544 | 20924 ft | 408 kts | 172° |
| 2026-04-23 12:03 | 19.22892 | -78.48990 | 20304 ft | 404 kts | 172° |
| 2026-04-23 12:04 | 19.20164 | -78.48444 | 19691 ft | 399 kts | 172° |
| 2026-04-23 12:04 | 19.17474 | -78.47905 | 19082 ft | 395 kts | 172° |
| 2026-04-23 12:04 | 19.14811 | -78.47372 | 18478 ft | 391 kts | 172° |
| 2026-04-23 12:04 | 19.12150 | -78.46841 | 17875 ft | 387 kts | 172° |
| 2026-04-23 12:05 | 19.09538 | -78.46320 | 17193 ft | 385 kts | 172° |
| 2026-04-23 12:05 | 19.06906 | -78.45795 | 16523 ft | 383 kts | 171° |
| 2026-04-23 12:05 | 19.04314 | -78.45277 | 16054 ft | 375 kts | 171° |
| 2026-04-23 12:05 | 19.01777 | -78.44769 | 15530 ft | 375 kts | 171° |
| 2026-04-23 12:06 | 18.99260 | -78.44149 | 14932 ft | 376 kts | 164° |
| 2026-04-23 12:06 | 18.96833 | -78.43144 | 14309 ft | 374 kts | 155° |
| 2026-04-23 12:06 | 18.92552 | -78.40186 | 13118 ft | 367 kts | 139° |
| 2026-04-23 12:07 | 18.90738 | -78.38327 | 12538 ft | 363 kts | 134° |
| 2026-04-23 12:07 | 18.89014 | -78.36404 | 11988 ft | 358 kts | 133° |
| 2026-04-23 12:07 | 18.87330 | -78.34499 | 11434 ft | 354 kts | 133° |
| 2026-04-23 12:07 | 18.85670 | -78.32618 | 10890 ft | 349 kts | 133° |
| 2026-04-23 12:08 | 18.84031 | -78.30759 | 10459 ft | 341 kts | 133° |
| 2026-04-23 12:08 | 18.82450 | -78.28968 | 10323 ft | 324 kts | 133° |
| 2026-04-23 12:08 | 18.80970 | -78.27293 | 10236 ft | 309 kts | 133° |
| 2026-04-23 12:08 | 18.79534 | -78.25668 | 10143 ft | 295 kts | 133° |
| 2026-04-23 12:09 | 18.78164 | -78.24115 | 10059 ft | 282 kts | 133° |
| 2026-04-23 12:09 | 18.76862 | -78.22637 | 9884 ft | 275 kts | 133° |
| 2026-04-23 12:09 | 18.75547 | -78.21144 | 9467 ft | 276 kts | 132° |
| 2026-04-23 12:09 | 18.74199 | -78.19708 | 9114 ft | 275 kts | 143° |
| 2026-04-23 12:10 | 18.72502 | -78.18858 | 8809 ft | 273 kts | 164° |
| 2026-04-23 12:10 | 18.70668 | -78.18448 | 8547 ft | 270 kts | 169° |
| 2026-04-23 12:10 | 18.68809 | -78.18124 | 8288 ft | 273 kts | 169° |
| 2026-04-23 12:10 | 18.66944 | -78.17909 | 8008 ft | 273 kts | 175° |
| 2026-04-23 12:11 | 18.65047 | -78.17821 | 7638 ft | 273 kts | 176° |
| 2026-04-23 12:11 | 18.63132 | -78.17753 | 7258 ft | 273 kts | 176° |
| 2026-04-23 12:11 | 18.61239 | -78.17693 | 6883 ft | 273 kts | 177° |
| 2026-04-23 12:11 | 18.59357 | -78.17635 | 6509 ft | 272 kts | 177° |
| 2026-04-23 12:12 | 18.57492 | -78.17582 | 6137 ft | 271 kts | 177° |
| 2026-04-23 12:12 | 18.55617 | -78.17531 | 5789 ft | 268 kts | 177° |
| 2026-04-23 12:12 | 18.53776 | -78.17482 | 5411 ft | 264 kts | 177° |
| 2026-04-23 12:12 | 18.51953 | -78.17431 | 5026 ft | 260 kts | 176° |
| 2026-04-23 12:13 | 18.50159 | -78.17240 | 4642 ft | 256 kts | 171° |
| 2026-04-23 12:13 | 18.48416 | -78.16972 | 4265 ft | 253 kts | 169° |
| 2026-04-23 12:13 | 18.46716 | -78.16545 | 3904 ft | 249 kts | 160° |
| 2026-04-23 12:13 | 18.45176 | -78.15850 | 3648 ft | 241 kts | 152° |
| 2026-04-23 12:14 | 18.43713 | -78.15050 | 3473 ft | 231 kts | 149° |
| 2026-04-23 12:14 | 18.42578 | -78.13971 | 3398 ft | 214 kts | 123° |
| 2026-04-23 12:14 | 18.41995 | -78.12598 | 3306 ft | 200 kts | 98° |
| 2026-04-23 12:14 | 18.41992 | -78.11182 | 3227 ft | 187 kts | 81° |
| 2026-04-23 12:15 | 18.42340 | -78.09869 | 3177 ft | 186 kts | 70° |
| 2026-04-23 12:15 | 18.42836 | -78.08619 | 3238 ft | 187 kts | 66° |
| 2026-04-23 12:15 | 18.43375 | -78.07368 | 3100 ft | 187 kts | 66° |
| 2026-04-23 12:15 | 18.43909 | -78.06147 | 2864 ft | 179 kts | 66° |
| 2026-04-23 12:16 | 18.44412 | -78.04997 | 2619 ft | 168 kts | 66° |
| 2026-04-23 12:16 | 18.44878 | -78.03932 | 2431 ft | 151 kts | 66° |
| 2026-04-23 12:16 | 18.45309 | -78.02947 | 2201 ft | 146 kts | 66° |
| 2026-04-23 12:16 | 18.45732 | -78.01975 | 2029 ft | 145 kts | 66° |
| 2026-04-23 12:17 | 18.46153 | -78.01009 | 1829 ft | 148 kts | 67° |
| 2026-04-23 12:17 | 18.46582 | -78.00026 | 1618 ft | 146 kts | 67° |
| 2026-04-23 12:17 | 18.47007 | -77.99049 | 1427 ft | 145 kts | 68° |
| 2026-04-23 12:17 | 18.47426 | -77.98092 | 1227 ft | 144 kts | 68° |
| 2026-04-23 12:18 | 18.47838 | -77.97143 | 1034 ft | 144 kts | 68° |
| 2026-04-23 12:18 | 18.48256 | -77.96189 | 833 ft | 144 kts | 67° |
| 2026-04-23 12:18 | 18.48691 | -77.95234 | 615 ft | 143 kts | 66° |
| 2026-04-23 12:18 | 18.49102 | -77.94286 | 436 ft | 141 kts | 70° |
| 2026-04-23 12:19 | 18.49484 | -77.93336 | 259 ft | 143 kts | 67° |
| 2026-04-23 12:19 | 18.49920 | -77.92388 | 91 ft | 141 kts | 70° |
| 2026-04-23 12:19 | 18.50308 | -77.91457 | 14 ft | 125 kts | 64° |
| 2026-04-23 12:19 | 18.50570 | -77.90862 | 16 ft | 59 kts | 65° |
| 2026-04-23 12:20 | 18.50681 | -77.90610 | 16 ft | 24 kts | 66° |
| 2026-04-23 12:20 | 18.50750 | -77.90454 | 16 ft | 22 kts | 65° |
| 2026-04-23 12:20 | 18.50810 | -77.90311 | 16 ft | 21 kts | 66° |
| 2026-04-23 12:20 | 18.50808 | -77.90193 | 16 ft | 14 kts | 146° |
| 2026-04-23 12:21 | 18.50718 | -77.90204 | 17 ft | 14 kts | 199° |
| 2026-04-23 12:21 | 18.50640 | -77.90273 | 17 ft | 16 kts | 242° |
| 2026-04-23 12:21 | 18.50589 | -77.90389 | 16 ft | 18 kts | 246° |
| 2026-04-23 12:21 | 18.50532 | -77.90523 | 16 ft | 20 kts | 246° |
| 2026-04-23 12:22 | 18.50473 | -77.90661 | 16 ft | 19 kts | 246° |
| 2026-04-23 12:22 | 18.50417 | -77.90794 | 16 ft | 20 kts | 246° |
| 2026-04-23 12:22 | 18.50359 | -77.90929 | 16 ft | 20 kts | 244° |
| 2026-04-23 12:22 | 18.50302 | -77.91059 | 17 ft | 18 kts | 245° |
| 2026-04-23 12:23 | 18.50252 | -77.91180 | 17 ft | 17 kts | 245° |
| 2026-04-23 12:23 | 18.50196 | -77.91307 | 18 ft | 20 kts | 244° |
| 2026-04-23 12:23 | 18.50117 | -77.91421 | 18 ft | 18 kts | 217° |
| 2026-04-23 12:23 | 18.50032 | -77.91453 | 19 ft | 9 kts | 175° |
| 2026-04-23 12:24 | 18.49992 | -77.91439 | 21 ft | 1 kts | 156° |
| 2026-04-23 12:24 | 18.49982 | -77.91434 | 21 ft | 1 kts | 154° |
| 2026-04-23 12:24 | 18.49980 | -77.91433 | 21 ft | 0 kts | 154° |